createdAt,value
2017-05-14T00:00:04.653Z,13.96
2017-05-14T00:01:05.336Z,13.85
2017-05-14T00:02:06.057Z,13.87
2017-05-14T00:03:06.720Z,13.77
2017-05-14T00:04:07.398Z,13.85
2017-05-14T00:05:08.073Z,13.83
2017-05-14T00:06:08.739Z,13.83
2017-05-14T00:07:09.419Z,13.86
2017-05-14T00:08:10.146Z,13.75
2017-05-14T00:09:10.851Z,13.85
2017-05-14T00:10:11.535Z,13.77
2017-05-14T00:11:12.212Z,13.83
2017-05-14T00:12:12.877Z,13.72
2017-05-14T00:13:13.553Z,13.71
2017-05-14T00:14:14.227Z,13.79
2017-05-14T00:15:14.891Z,13.78
2017-05-14T00:16:15.556Z,13.77
2017-05-14T00:17:16.232Z,13.77
2017-05-14T00:18:16.914Z,13.78
2017-05-14T00:19:17.579Z,13.74
2017-05-14T00:20:18.256Z,13.78
2017-05-14T00:21:18.926Z,13.68
2017-05-14T00:22:19.600Z,13.79
2017-05-14T00:23:20.279Z,13.74
2017-05-14T00:24:20.953Z,13.79
2017-05-14T00:25:21.652Z,13.72
2017-05-14T00:26:22.335Z,13.85
2017-05-14T00:27:23.012Z,13.78
2017-05-14T00:28:23.691Z,13.77
2017-05-14T00:29:24.359Z,13.6
2017-05-14T00:30:25.024Z,13.74
2017-05-14T00:31:25.699Z,13.72
2017-05-14T00:32:26.372Z,13.71
2017-05-14T00:33:27.038Z,13.67
2017-05-14T00:34:27.715Z,13.7
2017-05-14T00:35:28.383Z,13.68
2017-05-14T00:36:29.050Z,13.63
2017-05-14T00:37:29.719Z,13.6
2017-05-14T00:38:30.401Z,13.6
2017-05-14T00:39:31.082Z,13.6
2017-05-14T00:40:31.757Z,13.53
2017-05-14T00:41:32.430Z,13.57
2017-05-14T00:42:33.102Z,13.59
2017-05-14T00:43:33.784Z,13.65
2017-05-14T00:44:34.456Z,13.68
2017-05-14T00:45:35.155Z,13.65
2017-05-14T00:46:35.878Z,13.59
2017-05-14T00:47:36.547Z,13.54
2017-05-14T00:48:37.219Z,13.56
2017-05-14T00:49:37.912Z,13.59
2017-05-14T00:50:38.614Z,13.53
2017-05-14T00:51:39.291Z,13.46
2017-05-14T00:52:39.968Z,13.44
2017-05-14T00:53:40.634Z,13.42
2017-05-14T00:54:41.312Z,13.5
2017-05-14T00:55:41.987Z,13.42
2017-05-14T00:56:42.657Z,13.41
2017-05-14T00:57:43.324Z,13.52
2017-05-14T00:58:44.003Z,13.41
2017-05-14T00:59:44.680Z,13.53
2017-05-14T01:00:45.378Z,13.59
2017-05-14T01:01:46.061Z,13.54
2017-05-14T01:02:46.730Z,13.52
2017-05-14T01:03:47.413Z,13.53
2017-05-14T01:04:48.078Z,13.53
2017-05-14T01:05:48.752Z,13.53
2017-05-14T01:06:49.425Z,13.49
2017-05-14T01:07:50.099Z,13.47
2017-05-14T01:08:50.776Z,13.47
2017-05-14T01:09:51.461Z,13.46
2017-05-14T01:10:52.140Z,13.42
2017-05-14T01:11:52.840Z,13.5
2017-05-14T01:12:56.486Z,13.46
2017-05-14T01:13:57.153Z,13.5
2017-05-14T01:14:57.831Z,13.41
2017-05-14T01:15:58.504Z,13.41
2017-05-14T01:16:59.180Z,13.38
2017-05-14T01:17:59.842Z,13.35
2017-05-14T01:19:00.511Z,13.39
2017-05-14T01:20:01.179Z,13.33
2017-05-14T01:21:01.856Z,13.33
2017-05-14T01:22:02.541Z,13.22
2017-05-14T01:23:03.203Z,13.33
2017-05-14T01:24:03.888Z,13.31
2017-05-14T01:25:04.543Z,13.33
2017-05-14T01:26:05.224Z,13.37
2017-05-14T01:27:05.913Z,13.39
2017-05-14T01:28:06.610Z,13.31
2017-05-14T01:29:07.282Z,13.28
2017-05-14T01:30:07.965Z,13.25
2017-05-14T01:31:08.629Z,13.25
2017-05-14T01:32:09.314Z,13.25
2017-05-14T01:33:09.988Z,13.25
2017-05-14T01:34:10.668Z,13.22
2017-05-14T01:35:11.341Z,13.27
2017-05-14T01:36:12.009Z,13.31
2017-05-14T01:37:12.714Z,13.2
2017-05-14T01:38:13.393Z,13.28
2017-05-14T01:39:14.070Z,13.28
2017-05-14T01:40:14.732Z,13.16
2017-05-14T01:41:15.399Z,13.19
2017-05-14T01:42:16.072Z,13.28
2017-05-14T01:43:16.766Z,13.22
2017-05-14T01:44:17.468Z,13.23
2017-05-14T01:45:18.156Z,13.31
2017-05-14T01:46:18.823Z,13.22
2017-05-14T01:47:19.491Z,13.22
2017-05-14T01:48:20.175Z,13.22
2017-05-14T01:49:20.862Z,13.25
2017-05-14T01:50:21.561Z,13.18
2017-05-14T01:51:22.231Z,13.16
2017-05-14T01:52:22.926Z,13.18
2017-05-14T01:53:23.634Z,13.27
2017-05-14T01:54:24.305Z,13.27
2017-05-14T01:55:24.978Z,13.33
2017-05-14T01:56:25.655Z,13.3
2017-05-14T01:57:26.320Z,13.25
2017-05-14T01:58:26.995Z,13.35
2017-05-14T01:59:27.664Z,13.42
2017-05-14T02:00:28.353Z,13.35
2017-05-14T02:01:29.019Z,13.3
2017-05-14T02:02:29.725Z,13.28
2017-05-14T02:03:30.428Z,13.33
2017-05-14T02:04:31.194Z,13.33
2017-05-14T02:05:31.861Z,13.39
2017-05-14T02:06:32.577Z,13.39
2017-05-14T02:07:33.318Z,13.33
2017-05-14T02:08:34.029Z,13.31
2017-05-14T02:09:34.707Z,13.3
2017-05-14T02:10:35.380Z,13.31
2017-05-14T02:11:36.092Z,13.31
2017-05-14T02:12:36.765Z,13.25
2017-05-14T02:13:37.434Z,13.39
2017-05-14T02:14:38.111Z,13.27
2017-05-14T02:15:38.783Z,13.23
2017-05-14T02:16:39.463Z,13.27
2017-05-14T02:17:40.129Z,13.27
2017-05-14T02:18:40.796Z,13.2
2017-05-14T02:19:41.469Z,13.3
2017-05-14T02:20:42.157Z,13.27
2017-05-14T02:21:42.826Z,13.27
2017-05-14T02:22:43.537Z,13.23
2017-05-14T02:23:44.221Z,13.39
2017-05-14T02:24:44.901Z,13.3
2017-05-14T02:25:45.596Z,13.31
2017-05-14T02:26:46.284Z,13.3
2017-05-14T02:27:46.969Z,13.38
2017-05-14T02:28:47.621Z,13.33
2017-05-14T02:29:48.303Z,13.3
2017-05-14T02:30:48.977Z,13.37
2017-05-14T02:31:49.670Z,13.35
2017-05-14T02:32:50.354Z,13.37
2017-05-14T02:33:51.037Z,13.37
2017-05-14T02:34:51.701Z,13.35
2017-05-14T02:35:52.371Z,13.42
2017-05-14T02:36:53.051Z,13.33
2017-05-14T02:37:53.770Z,13.35
2017-05-14T02:38:54.438Z,13.38
2017-05-14T02:39:55.110Z,13.25
2017-05-14T02:40:55.820Z,13.39
2017-05-14T02:41:56.486Z,13.27
2017-05-14T02:42:57.191Z,13.38
2017-05-14T02:43:57.875Z,13.25
2017-05-14T02:44:58.539Z,13.25
2017-05-14T02:45:59.242Z,13.3
2017-05-14T02:46:59.898Z,13.23
2017-05-14T02:48:00.574Z,13.31
2017-05-14T02:49:01.250Z,13.33
2017-05-14T02:50:01.935Z,13.35
2017-05-14T02:51:02.610Z,13.37
2017-05-14T02:52:03.289Z,13.31
2017-05-14T02:53:03.956Z,13.31
2017-05-14T02:54:04.627Z,13.31
2017-05-14T02:55:05.302Z,13.33
2017-05-14T02:56:06.005Z,13.37
2017-05-14T02:57:06.693Z,13.23
2017-05-14T02:58:07.368Z,13.42
2017-05-14T02:59:08.063Z,13.38
2017-05-14T03:00:08.746Z,13.33
2017-05-14T03:01:09.418Z,13.38
2017-05-14T03:02:10.105Z,13.38
2017-05-14T03:03:10.783Z,13.38
2017-05-14T03:04:11.466Z,13.28
2017-05-14T03:05:12.137Z,13.35
2017-05-14T03:06:12.813Z,13.39
2017-05-14T03:07:13.499Z,13.35
2017-05-14T03:08:14.200Z,13.38
2017-05-14T03:09:14.877Z,13.35
2017-05-14T03:10:15.562Z,13.44
2017-05-14T03:11:16.267Z,13.5
2017-05-14T03:12:16.942Z,13.46
2017-05-14T03:13:17.626Z,13.38
2017-05-14T03:14:18.327Z,13.3
2017-05-14T03:15:19.012Z,13.35
2017-05-14T03:16:19.686Z,13.41
2017-05-14T03:17:20.356Z,13.35
2017-05-14T03:18:21.049Z,13.3
2017-05-14T03:19:21.750Z,13.35
2017-05-14T03:20:22.422Z,13.27
2017-05-14T03:21:23.092Z,13.35
2017-05-14T03:22:23.766Z,13.27
2017-05-14T03:23:24.434Z,13.22
2017-05-14T03:24:25.108Z,13.28
2017-05-14T03:25:25.796Z,13.28
2017-05-14T03:26:26.474Z,13.31
2017-05-14T03:27:27.191Z,13.13
2017-05-14T03:28:27.940Z,13.27
2017-05-14T03:29:28.625Z,13.16
2017-05-14T03:30:29.297Z,13.15
2017-05-14T03:31:29.990Z,13.19
2017-05-14T03:32:30.685Z,13.18
2017-05-14T03:33:31.361Z,13.08
2017-05-14T03:34:32.049Z,13.08
2017-05-14T03:35:32.737Z,13.11
2017-05-14T03:36:33.498Z,13.13
2017-05-14T03:37:34.176Z,13.05
2017-05-14T03:38:34.875Z,13.03
2017-05-14T03:39:35.575Z,13.18
2017-05-14T03:40:36.275Z,13.19
2017-05-14T03:41:36.950Z,13.22
2017-05-14T03:42:37.623Z,13.22
2017-05-14T03:43:38.288Z,13.19
2017-05-14T03:44:38.964Z,13.16
2017-05-14T03:45:39.652Z,13.09
2017-05-14T03:46:40.321Z,13.22
2017-05-14T03:47:41.051Z,13.16
2017-05-14T03:48:41.730Z,13.16
2017-05-14T03:49:42.399Z,13.16
2017-05-14T03:50:43.091Z,13.08
2017-05-14T03:51:43.781Z,13.13
2017-05-14T03:52:44.460Z,13.09
2017-05-14T03:53:45.124Z,13.18
2017-05-14T03:54:45.797Z,13.18
2017-05-14T03:55:46.523Z,13.28
2017-05-14T03:56:47.197Z,13.23
2017-05-14T03:57:47.865Z,13.3
2017-05-14T03:58:48.545Z,13.33
2017-05-14T03:59:49.211Z,13.31
2017-05-14T04:00:49.890Z,13.25
2017-05-14T04:01:50.557Z,13.37
2017-05-14T04:02:51.225Z,13.38
2017-05-14T04:03:51.912Z,13.41
2017-05-14T04:04:52.594Z,13.37
2017-05-14T04:05:53.300Z,13.39
2017-05-14T04:06:53.966Z,13.35
2017-05-14T04:07:54.639Z,13.33
2017-05-14T04:08:55.308Z,13.37
2017-05-14T04:09:55.983Z,13.42
2017-05-14T04:10:56.666Z,13.38
2017-05-14T04:11:57.370Z,13.39
2017-05-14T04:12:58.059Z,13.44
2017-05-14T04:13:58.728Z,13.42
2017-05-14T04:14:59.402Z,13.39
2017-05-14T04:16:00.070Z,13.42
2017-05-14T04:17:00.746Z,13.42
2017-05-14T04:18:01.419Z,13.37
2017-05-14T04:19:02.145Z,13.44
2017-05-14T04:20:02.813Z,13.49
2017-05-14T04:21:03.484Z,13.46
2017-05-14T04:22:04.171Z,13.5
2017-05-14T04:23:04.842Z,13.56
2017-05-14T04:24:05.517Z,13.54
2017-05-14T04:25:06.191Z,13.54
2017-05-14T04:26:06.899Z,13.56
2017-05-14T04:27:07.575Z,13.54
2017-05-14T04:28:08.246Z,13.59
2017-05-14T04:29:08.929Z,13.56
2017-05-14T04:30:09.604Z,13.63
2017-05-14T04:31:10.290Z,13.68
2017-05-14T04:32:10.966Z,13.75
2017-05-14T04:33:11.640Z,13.77
2017-05-14T04:34:12.326Z,13.75
2017-05-14T04:35:13.024Z,13.87
2017-05-14T04:36:13.680Z,13.89
2017-05-14T04:37:14.375Z,13.87
2017-05-14T04:38:15.059Z,13.97
2017-05-14T04:39:15.767Z,13.97
2017-05-14T04:40:16.449Z,14.05
2017-05-14T04:41:17.126Z,14.1
2017-05-14T04:42:17.816Z,14.11
2017-05-14T04:43:18.497Z,14.18
2017-05-14T04:44:19.193Z,14.11
2017-05-14T04:45:19.877Z,14.18
2017-05-14T04:46:20.574Z,14.32
2017-05-14T04:47:21.261Z,14.25
2017-05-14T04:48:21.932Z,14.36
2017-05-14T04:49:22.607Z,14.28
2017-05-14T04:50:23.319Z,14.33
2017-05-14T04:51:24.018Z,14.35
2017-05-14T04:52:24.683Z,14.3
2017-05-14T04:53:25.388Z,14.3
2017-05-14T04:54:26.064Z,14.37
2017-05-14T04:55:26.742Z,14.37
2017-05-14T04:56:27.418Z,14.35
2017-05-14T04:57:28.081Z,14.44
2017-05-14T04:58:28.765Z,14.35
2017-05-14T04:59:29.475Z,14.4
2017-05-14T05:00:30.178Z,14.43
2017-05-14T05:01:30.880Z,14.45
2017-05-14T05:02:31.591Z,14.43
2017-05-14T05:03:32.266Z,14.54
2017-05-14T05:04:32.949Z,14.5
2017-05-14T05:05:33.667Z,14.59
2017-05-14T05:06:34.340Z,14.55
2017-05-14T05:07:35.017Z,14.63
2017-05-14T05:08:35.692Z,14.55
2017-05-14T05:09:36.371Z,14.5
2017-05-14T05:10:37.044Z,14.53
2017-05-14T05:11:37.720Z,14.55
2017-05-14T05:12:38.422Z,14.53
2017-05-14T05:13:39.094Z,14.47
2017-05-14T05:14:39.793Z,14.37
2017-05-14T05:15:40.500Z,14.5
2017-05-14T05:16:41.176Z,14.55
2017-05-14T05:17:41.864Z,14.62
2017-05-14T05:18:42.562Z,14.7
2017-05-14T05:19:43.244Z,14.89
2017-05-14T05:20:43.913Z,15.03
2017-05-14T05:21:44.582Z,15.27
2017-05-14T05:22:45.257Z,15.43
2017-05-14T05:23:45.922Z,15.58
2017-05-14T05:24:46.591Z,15.64
2017-05-14T05:25:47.282Z,15.73
2017-05-14T05:26:47.965Z,15.75
2017-05-14T05:27:48.657Z,15.64
2017-05-14T05:28:49.342Z,15.68
2017-05-14T05:29:50.012Z,15.65
2017-05-14T05:30:50.706Z,15.67
2017-05-14T05:31:51.414Z,15.64
2017-05-14T05:32:52.090Z,15.64
2017-05-14T05:33:52.764Z,15.64
2017-05-14T05:34:53.433Z,15.65
2017-05-14T05:35:54.136Z,15.64
2017-05-14T05:36:54.810Z,15.55
2017-05-14T05:37:55.489Z,15.58
2017-05-14T05:38:56.163Z,15.57
2017-05-14T05:39:56.832Z,15.65
2017-05-14T05:40:57.511Z,15.64
2017-05-14T05:41:58.194Z,15.61
2017-05-14T05:42:58.851Z,15.67
2017-05-14T05:43:59.546Z,15.7
2017-05-14T05:45:00.243Z,15.62
2017-05-14T05:46:00.921Z,15.62
2017-05-14T05:47:01.617Z,15.59
2017-05-14T05:48:02.324Z,15.65
2017-05-14T05:49:03.035Z,15.67
2017-05-14T05:50:03.713Z,15.67
2017-05-14T05:51:04.406Z,15.58
2017-05-14T05:52:05.084Z,15.62
2017-05-14T05:53:05.752Z,15.61
2017-05-14T05:54:06.447Z,15.68
2017-05-14T05:55:07.125Z,15.7
2017-05-14T05:56:07.813Z,15.79
2017-05-14T05:57:08.482Z,15.79
2017-05-14T05:58:09.160Z,15.76
2017-05-14T05:59:09.840Z,15.83
2017-05-14T06:00:10.541Z,15.83
2017-05-14T06:01:11.211Z,15.9
2017-05-14T06:02:11.895Z,15.88
2017-05-14T06:03:12.567Z,15.84
2017-05-14T06:04:13.257Z,15.84
2017-05-14T06:05:13.963Z,15.94
2017-05-14T06:06:14.630Z,15.98
2017-05-14T06:07:15.313Z,16.09
2017-05-14T06:08:16.017Z,16.05
2017-05-14T06:09:16.709Z,16.04
2017-05-14T06:10:17.426Z,16.15
2017-05-14T06:11:18.110Z,16.1
2017-05-14T06:12:18.787Z,16.16
2017-05-14T06:13:19.531Z,16.1
2017-05-14T06:14:20.230Z,15.98
2017-05-14T06:15:20.900Z,16
2017-05-14T06:16:21.593Z,15.86
2017-05-14T06:17:22.273Z,15.84
2017-05-14T06:18:22.986Z,15.84
2017-05-14T06:19:23.764Z,15.84
2017-05-14T06:20:24.457Z,15.94
2017-05-14T06:21:25.145Z,15.98
2017-05-14T06:22:25.835Z,16.04
2017-05-14T06:23:26.536Z,16.08
2017-05-14T06:24:27.257Z,16.05
2017-05-14T06:25:28.076Z,16.09
2017-05-14T06:26:28.957Z,16.15
2017-05-14T06:27:29.633Z,16.17
2017-05-14T06:28:30.348Z,16.17
2017-05-14T06:29:31.054Z,16.12
2017-05-14T06:30:31.752Z,16.13
2017-05-14T06:31:32.444Z,16.17
2017-05-14T06:32:33.137Z,16.24
2017-05-14T06:33:33.817Z,16.21
2017-05-14T06:34:34.577Z,16.24
2017-05-14T06:35:35.236Z,16.29
2017-05-14T06:36:35.956Z,16.65
2017-05-14T06:37:36.646Z,16.71
2017-05-14T06:38:37.334Z,17.05
2017-05-14T06:39:38.243Z,16.96
2017-05-14T06:40:38.931Z,17.02
2017-05-14T06:41:39.648Z,16.99
2017-05-14T06:42:40.313Z,16.96
2017-05-14T06:43:40.993Z,17.08
2017-05-14T06:44:41.662Z,17.64
2017-05-14T06:45:42.343Z,18.01
2017-05-14T06:46:43.024Z,18.11
2017-05-14T06:47:43.729Z,18.11
2017-05-14T06:48:44.450Z,18.16
2017-05-14T06:49:45.136Z,18.38
2017-05-14T06:50:45.850Z,18.83
2017-05-14T06:51:46.522Z,18.71
2017-05-14T06:52:47.260Z,18.71
2017-05-14T06:53:47.973Z,18.63
2017-05-14T06:54:48.657Z,18.98
2017-05-14T06:55:49.364Z,19.33
2017-05-14T06:56:50.043Z,19.44
2017-05-14T06:57:50.732Z,19.3
2017-05-14T06:58:51.447Z,19.08
2017-05-14T06:59:52.154Z,19.11
2017-05-14T07:00:52.846Z,19.27
2017-05-14T07:01:53.545Z,19.26
2017-05-14T07:02:54.305Z,19.21
2017-05-14T07:03:55.054Z,19.21
2017-05-14T07:04:55.784Z,19.14
2017-05-14T07:05:56.504Z,18.88
2017-05-14T07:06:57.183Z,19
2017-05-14T07:07:57.904Z,18.95
2017-05-14T07:08:58.607Z,19.22
2017-05-14T07:09:59.295Z,19.47
2017-05-14T07:11:00.002Z,19.91
2017-05-14T07:12:00.694Z,20.31
2017-05-14T07:13:01.384Z,20.31
2017-05-14T07:14:02.115Z,20
2017-05-14T07:15:02.758Z,20.18
2017-05-14T07:16:03.514Z,20.48
2017-05-14T07:17:04.200Z,21
2017-05-14T07:18:04.921Z,21.46
2017-05-14T07:19:05.587Z,21.51
2017-05-14T07:20:06.276Z,21.27
2017-05-14T07:21:07.001Z,21.09
2017-05-14T07:22:07.699Z,20.81
2017-05-14T07:23:08.390Z,20.48
2017-05-14T07:24:09.065Z,20.25
2017-05-14T07:25:09.824Z,20.24
2017-05-14T07:26:10.501Z,19.81
2017-05-14T07:27:11.189Z,19.58
2017-05-14T07:28:11.903Z,19.89
2017-05-14T07:29:12.638Z,20.6
2017-05-14T07:30:13.350Z,21.12
2017-05-14T07:31:14.030Z,21.55
2017-05-14T07:32:14.707Z,21.96
2017-05-14T07:33:15.405Z,22.3
2017-05-14T07:34:16.092Z,22.32
2017-05-14T07:35:16.779Z,22.15
2017-05-14T07:36:17.504Z,22.57
2017-05-14T07:37:18.214Z,23.03
2017-05-14T07:38:18.892Z,23.41
2017-05-14T07:39:19.595Z,23.32
2017-05-14T07:40:20.293Z,23.43
2017-05-14T07:41:20.991Z,23.65
2017-05-14T07:42:21.688Z,23.61
2017-05-14T07:43:22.408Z,23.48
2017-05-14T07:44:23.134Z,23.37
2017-05-14T07:45:23.850Z,23.63
2017-05-14T07:46:24.555Z,23.87
2017-05-14T07:47:25.253Z,24.01
2017-05-14T07:48:25.973Z,24.14
2017-05-14T07:49:26.696Z,24.18
2017-05-14T07:50:27.433Z,24.06
2017-05-14T07:51:28.146Z,23.78
2017-05-14T07:52:28.923Z,23.91
2017-05-14T07:53:29.640Z,23.87
2017-05-14T07:54:30.365Z,23.98
2017-05-14T07:55:31.132Z,23.93
2017-05-14T07:56:31.861Z,24.11
2017-05-14T07:57:32.567Z,24.08
2017-05-14T07:58:33.256Z,24.3
2017-05-14T07:59:33.970Z,24.28
2017-05-14T08:00:34.762Z,24.08
2017-05-14T08:01:35.506Z,24.28
2017-05-14T08:02:36.201Z,24.4
2017-05-14T08:03:36.905Z,24.38
2017-05-14T08:04:37.601Z,24.45
2017-05-14T08:05:38.331Z,24.24
2017-05-14T08:06:39.098Z,24.16
2017-05-14T08:07:39.821Z,24.28
2017-05-14T08:08:40.516Z,24.5
2017-05-14T08:09:41.258Z,24.5
2017-05-14T08:10:41.996Z,24.14
2017-05-14T08:11:42.733Z,24.36
2017-05-14T08:12:43.435Z,24.61
2017-05-14T08:13:44.138Z,24.96
2017-05-14T08:14:44.859Z,25.01
2017-05-14T08:15:45.580Z,25.18
2017-05-14T08:16:46.272Z,25.17
2017-05-14T08:17:46.977Z,25.26
2017-05-14T08:18:47.699Z,25.11
2017-05-14T08:19:48.404Z,25.07
2017-05-14T08:20:49.151Z,25.28
2017-05-14T08:21:49.861Z,25.43
2017-05-14T08:22:50.581Z,25.21
2017-05-14T08:23:51.300Z,25.06
2017-05-14T08:24:52.037Z,25.01
2017-05-14T08:25:52.747Z,24.5
2017-05-14T08:26:53.456Z,24.35
2017-05-14T08:27:54.161Z,24.36
2017-05-14T08:28:54.882Z,24.5
2017-05-14T08:29:55.607Z,24.57
2017-05-14T08:30:56.307Z,24.61
2017-05-14T08:31:57.029Z,24.42
2017-05-14T08:32:57.782Z,24.39
2017-05-14T08:33:58.504Z,24.55
2017-05-14T08:34:59.208Z,24.65
2017-05-14T08:35:59.949Z,24.68
2017-05-14T08:37:00.655Z,24.89
2017-05-14T08:38:01.417Z,24.89
2017-05-14T08:39:02.114Z,24.65
2017-05-14T08:40:02.812Z,24.81
2017-05-14T08:41:03.563Z,24.63
2017-05-14T08:42:04.264Z,24.58
2017-05-14T08:43:05.017Z,24.65
2017-05-14T08:44:05.752Z,24.51
2017-05-14T08:45:06.489Z,24.69
2017-05-14T08:46:07.207Z,24.66
2017-05-14T08:47:07.905Z,24.81
2017-05-14T08:48:08.606Z,24.78
2017-05-14T08:49:09.304Z,24.61
2017-05-14T08:50:10.008Z,24.68
2017-05-14T08:51:10.722Z,24.91
2017-05-14T08:52:11.445Z,24.68
2017-05-14T08:53:12.218Z,24.81
2017-05-14T08:54:12.955Z,24.68
2017-05-14T08:55:13.691Z,24.57
2017-05-14T08:56:14.401Z,24.33
2017-05-14T08:57:15.129Z,24.14
2017-05-14T08:58:15.831Z,23.88
2017-05-14T08:59:16.535Z,24.06
2017-05-14T09:00:17.231Z,24.2
2017-05-14T09:01:17.962Z,24.4
2017-05-14T09:02:18.699Z,24.26
2017-05-14T09:03:19.415Z,24.29
2017-05-14T09:04:20.129Z,24.42
2017-05-14T09:05:20.852Z,24.32
2017-05-14T09:06:21.618Z,24.39
2017-05-14T09:07:22.325Z,24.01
2017-05-14T09:08:23.051Z,23.96
2017-05-14T09:09:23.755Z,24.08
2017-05-14T09:10:24.470Z,24.2
2017-05-14T09:11:25.197Z,24.14
2017-05-14T09:12:25.920Z,24.05
2017-05-14T09:13:26.637Z,23.87
2017-05-14T09:14:27.408Z,24.06
2017-05-14T09:15:28.113Z,24.28
2017-05-14T09:16:28.893Z,24.32
2017-05-14T09:17:29.665Z,24.39
2017-05-14T09:18:30.371Z,24.29
2017-05-14T09:19:31.070Z,23.98
2017-05-14T09:20:31.779Z,23.91
2017-05-14T09:21:32.509Z,23.96
2017-05-14T09:22:33.241Z,23.96
2017-05-14T09:23:33.929Z,23.73
2017-05-14T09:24:34.682Z,23.91
2017-05-14T09:25:35.431Z,23.88
2017-05-14T09:26:36.145Z,23.8
2017-05-14T09:27:36.874Z,24.01
2017-05-14T09:28:37.601Z,24.2
2017-05-14T09:29:38.344Z,24.16
2017-05-14T09:30:39.037Z,24.28
2017-05-14T09:31:39.746Z,24.28
2017-05-14T09:32:40.449Z,24.11
2017-05-14T09:33:41.160Z,24.13
2017-05-14T09:34:41.905Z,24.11
2017-05-14T09:35:42.584Z,23.92
2017-05-14T09:36:43.286Z,23.92
2017-05-14T09:37:44.002Z,23.77
2017-05-14T09:38:44.755Z,23.48
2017-05-14T09:39:45.478Z,23.36
2017-05-14T09:40:46.198Z,23.44
2017-05-14T09:41:46.939Z,23.43
2017-05-14T09:42:47.653Z,23.59
2017-05-14T09:43:48.373Z,23.8
2017-05-14T09:44:49.097Z,23.61
2017-05-14T09:45:49.830Z,23.34
2017-05-14T09:46:50.544Z,23.4
2017-05-14T09:47:51.276Z,23.4
2017-05-14T09:48:52.005Z,23.34
2017-05-14T09:49:52.742Z,23.31
2017-05-14T09:50:53.469Z,23.15
2017-05-14T09:51:54.228Z,22.96
2017-05-14T09:52:54.902Z,22.81
2017-05-14T09:53:55.598Z,22.69
2017-05-14T09:54:56.307Z,22.45
2017-05-14T09:55:57.005Z,22.33
2017-05-14T09:56:57.738Z,22.26
2017-05-14T09:57:58.431Z,22.25
2017-05-14T09:58:59.125Z,22.2
2017-05-14T09:59:59.831Z,22.2
2017-05-14T10:01:00.546Z,22.2
2017-05-14T10:02:01.317Z,22.22
2017-05-14T10:03:01.994Z,22.14
2017-05-14T10:04:02.675Z,22.17
2017-05-14T10:05:03.376Z,22
2017-05-14T10:06:04.056Z,21.98
2017-05-14T10:07:04.770Z,21.98
2017-05-14T10:08:05.421Z,21.99
2017-05-14T10:09:06.130Z,21.91
2017-05-14T10:10:06.824Z,21.96
2017-05-14T10:11:07.510Z,21.99
2017-05-14T10:12:08.198Z,21.99
2017-05-14T10:13:08.883Z,21.89
2017-05-14T10:14:09.601Z,21.75
2017-05-14T10:15:10.336Z,21.77
2017-05-14T10:16:11.037Z,21.85
2017-05-14T10:17:11.762Z,21.75
2017-05-14T10:18:12.486Z,21.79
2017-05-14T10:19:13.179Z,21.75
2017-05-14T10:20:13.905Z,21.58
2017-05-14T10:21:14.607Z,21.42
2017-05-14T10:22:15.309Z,21.5
2017-05-14T10:23:16.034Z,21.57
2017-05-14T10:24:16.724Z,21.61
2017-05-14T10:25:17.452Z,21.62
2017-05-14T10:26:18.170Z,21.6
2017-05-14T10:27:18.922Z,21.48
2017-05-14T10:28:19.621Z,21.3
2017-05-14T10:29:20.353Z,21.35
2017-05-14T10:30:21.088Z,21.21
2017-05-14T10:31:21.789Z,21.22
2017-05-14T10:32:22.486Z,21.42
2017-05-14T10:33:23.227Z,21.51
2017-05-14T10:34:23.903Z,21.42
2017-05-14T10:35:24.666Z,21.54
2017-05-14T10:36:25.400Z,21.6
2017-05-14T10:37:26.127Z,21.62
2017-05-14T10:38:26.864Z,21.4
2017-05-14T10:39:27.567Z,21.48
2017-05-14T10:40:28.299Z,21.54
2017-05-14T10:41:28.996Z,21.7
2017-05-14T10:42:29.695Z,21.7
2017-05-14T10:43:30.431Z,21.6
2017-05-14T10:44:31.168Z,21.54
2017-05-14T10:45:31.924Z,21.5
2017-05-14T10:46:32.630Z,21.64
2017-05-14T10:47:33.306Z,21.67
2017-05-14T10:48:33.987Z,21.6
2017-05-14T10:49:34.701Z,21.37
2017-05-14T10:50:35.384Z,21.37
2017-05-14T10:51:36.113Z,21.27
2017-05-14T10:52:36.801Z,21.27
2017-05-14T10:53:37.499Z,21.24
2017-05-14T10:54:38.209Z,21.2
2017-05-14T10:55:38.893Z,21.35
2017-05-14T10:56:39.597Z,21.36
2017-05-14T10:57:40.336Z,21.42
2017-05-14T10:58:41.023Z,21.42
2017-05-14T10:59:41.730Z,21.4
2017-05-14T11:00:42.419Z,21.45
2017-05-14T11:01:43.133Z,21.55
2017-05-14T11:02:43.852Z,21.5
2017-05-14T11:03:44.608Z,21.54
2017-05-14T11:04:45.361Z,21.52
2017-05-14T11:05:46.064Z,21.45
2017-05-14T11:06:46.741Z,21.45
2017-05-14T11:07:47.448Z,21.5
2017-05-14T11:08:48.159Z,21.42
2017-05-14T11:09:48.876Z,21.39
2017-05-14T11:10:50.505Z,21.5
2017-05-14T11:11:51.186Z,21.55
2017-05-14T11:12:51.940Z,21.51
2017-05-14T11:13:54.533Z,21.4
2017-05-14T11:14:55.245Z,21.35
2017-05-14T11:15:56.791Z,21.27
2017-05-14T11:17:12.736Z,21.18
2017-05-14T11:18:13.594Z,21.3
2017-05-14T11:19:15.074Z,21.33
2017-05-14T11:20:15.860Z,21.45
2017-05-14T11:21:16.538Z,21.6
2017-05-14T11:22:17.245Z,21.54
2017-05-14T11:23:17.961Z,21.61
2017-05-14T11:24:18.647Z,21.61
2017-05-14T11:25:19.592Z,21.66
2017-05-14T11:26:20.314Z,21.58
2017-05-14T11:27:20.993Z,21.61
2017-05-14T11:28:21.712Z,21.58
2017-05-14T11:29:22.369Z,21.51
2017-05-14T11:30:23.153Z,21.66
2017-05-14T11:31:23.838Z,21.58
2017-05-14T11:32:24.567Z,21.6
2017-05-14T11:33:25.314Z,21.54
2017-05-14T11:34:25.979Z,21.5
2017-05-14T11:35:26.670Z,21.46
2017-05-14T11:36:27.382Z,21.39
2017-05-14T11:37:28.142Z,21.51
2017-05-14T11:38:28.783Z,21.37
2017-05-14T11:39:29.478Z,21.5
2017-05-14T11:40:30.444Z,21.54
2017-05-14T11:41:31.155Z,21.67
2017-05-14T11:42:31.838Z,21.66
2017-05-14T11:43:32.554Z,21.76
2017-05-14T11:44:33.241Z,21.76
2017-05-14T11:45:34.442Z,21.85
2017-05-14T11:46:35.133Z,21.98
2017-05-14T11:47:36.051Z,21.99
2017-05-14T11:48:36.736Z,21.96
2017-05-14T11:49:37.469Z,21.98
2017-05-14T11:50:38.176Z,22
2017-05-14T11:51:38.898Z,21.96
2017-05-14T11:52:39.572Z,21.95
2017-05-14T11:53:40.264Z,22.13
2017-05-14T11:54:41.028Z,22
2017-05-14T11:55:41.807Z,21.96
2017-05-14T11:56:42.536Z,21.98
2017-05-14T11:57:43.234Z,21.98
2017-05-14T11:58:45.339Z,21.98
2017-05-14T11:59:45.463Z,22.08
2017-05-14T12:00:46.135Z,22.26
2017-05-14T12:01:46.901Z,22.15
2017-05-14T12:02:47.585Z,22.1
2017-05-14T12:03:48.266Z,21.96
2017-05-14T12:04:48.958Z,21.72
2017-05-14T12:05:49.635Z,21.76
2017-05-14T12:06:50.756Z,21.66
2017-05-14T12:07:51.469Z,21.67
2017-05-14T12:08:52.186Z,21.67
2017-05-14T12:09:52.893Z,21.55
2017-05-14T12:10:53.636Z,21.33
2017-05-14T12:11:54.346Z,21.25
2017-05-14T12:12:55.037Z,21.33
2017-05-14T12:13:55.744Z,21.35
2017-05-14T12:14:56.470Z,21.4
2017-05-14T12:15:57.166Z,21.52
2017-05-14T12:16:57.973Z,21.58
2017-05-14T12:18:01.510Z,21.73
2017-05-14T12:19:02.264Z,21.73
2017-05-14T12:20:03.007Z,21.79
2017-05-14T12:21:03.744Z,21.73
2017-05-14T12:22:04.464Z,21.69
2017-05-14T12:23:05.171Z,21.54
2017-05-14T12:24:06.297Z,21.72
2017-05-14T12:25:07.193Z,21.77
2017-05-14T12:26:08.370Z,21.92
2017-05-14T12:27:09.077Z,21.92
2017-05-14T12:28:09.771Z,21.95
2017-05-14T12:29:10.504Z,21.99
2017-05-14T12:30:11.470Z,21.96
2017-05-14T12:31:12.271Z,21.95
2017-05-14T12:32:12.998Z,21.76
2017-05-14T12:33:13.686Z,21.82
2017-05-14T12:34:14.407Z,21.89
2017-05-14T12:35:15.130Z,21.91
2017-05-14T12:36:15.842Z,21.96
2017-05-14T12:37:16.530Z,21.98
2017-05-14T12:38:18.076Z,21.98
2017-05-14T12:39:19.113Z,21.99
2017-05-14T12:40:20.085Z,21.98
2017-05-14T12:41:20.857Z,21.96
2017-05-14T12:42:21.535Z,21.99
2017-05-14T12:43:22.231Z,21.96
2017-05-14T12:44:22.944Z,21.99
2017-05-14T12:45:23.994Z,21.99
2017-05-14T12:46:24.675Z,21.93
2017-05-14T12:47:25.370Z,21.77
2017-05-14T12:48:26.069Z,21.67
2017-05-14T12:49:26.754Z,21.75
2017-05-14T12:50:27.482Z,21.75
2017-05-14T12:51:28.203Z,21.83
2017-05-14T12:52:28.919Z,21.76
2017-05-14T12:53:29.639Z,21.79
2017-05-14T12:54:30.361Z,21.89
2017-05-14T12:55:31.071Z,21.93
2017-05-14T12:56:31.761Z,21.99
2017-05-14T12:57:33.099Z,21.89
2017-05-14T12:58:33.784Z,21.83
2017-05-14T12:59:34.495Z,21.8
2017-05-14T13:00:35.225Z,21.76
2017-05-14T13:01:35.930Z,21.77
2017-05-14T13:02:36.626Z,21.77
2017-05-14T13:03:37.331Z,21.69
2017-05-14T13:04:38.023Z,21.66